sensor_id;sensor_type;location;lat;lon;timestamp;P1;durP1;ratioP1;P2;durP2;ratioP2
12812;SDS011;6471;50.932;6.934;2023-07-08T01:27:06;4.07;;;3.10;;
12812;SDS011;6471;50.932;6.934;2023-07-08T01:29:36;4.27;;;3.00;;
12812;SDS011;6471;50.932;6.934;2023-07-08T01:32:24;3.43;;;2.80;;
12812;SDS011;6471;50.932;6.934;2023-07-08T04:32:49;3.33;;;2.70;;
12812;SDS011;6471;50.932;6.934;2023-07-08T04:38:20;3.30;;;2.70;;
12812;SDS011;6471;50.932;6.934;2023-07-08T04:40:46;3.30;;;2.60;;
12812;SDS011;6471;50.932;6.934;2023-07-08T04:48:47;3.53;;;2.83;;
12812;SDS011;6471;50.932;6.934;2023-07-08T04:51:23;3.40;;;2.93;;
12812;SDS011;6471;50.932;6.934;2023-07-08T04:54:09;3.23;;;2.60;;
12812;SDS011;6471;50.932;6.934;2023-07-08T04:59:41;3.30;;;2.70;;
12812;SDS011;6471;50.932;6.934;2023-07-08T05:02:18;3.73;;;2.97;;
12812;SDS011;6471;50.932;6.934;2023-07-08T05:04:45;3.77;;;2.97;;
12812;SDS011;6471;50.932;6.934;2023-07-08T05:49:12;3.47;;;3.00;;
12812;SDS011;6471;50.932;6.934;2023-07-08T05:51:44;4.00;;;3.07;;
12812;SDS011;6471;50.932;6.934;2023-07-08T05:59:59;3.80;;;3.00;;
12812;SDS011;6471;50.932;6.934;2023-07-08T06:02:49;4.23;;;3.20;;
12812;SDS011;6471;50.932;6.934;2023-07-08T06:05:27;4.73;;;3.13;;
12812;SDS011;6471;50.932;6.934;2023-07-08T06:29:37;4.20;;;3.10;;
12812;SDS011;6471;50.932;6.934;2023-07-08T06:32:06;5.37;;;3.43;;
12812;SDS011;6471;50.932;6.934;2023-07-08T06:34:51;4.30;;;3.63;;
12812;SDS011;6471;50.932;6.934;2023-07-08T06:37:59;4.60;;;3.40;;
12812;SDS011;6471;50.932;6.934;2023-07-08T06:49:40;4.47;;;3.60;;
12812;SDS011;6471;50.932;6.934;2023-07-08T07:07:46;3.87;;;3.10;;
12812;SDS011;6471;50.932;6.934;2023-07-08T07:16:51;4.37;;;3.67;;
12812;SDS011;6471;50.932;6.934;2023-07-08T07:25:47;4.27;;;3.30;;
12812;SDS011;6471;50.932;6.934;2023-07-08T07:28:16;4.03;;;3.20;;
12812;SDS011;6471;50.932;6.934;2023-07-08T07:30:44;4.33;;;3.20;;
12812;SDS011;6471;50.932;6.934;2023-07-08T07:33:22;3.23;;;2.90;;
12812;SDS011;6471;50.932;6.934;2023-07-08T07:35:55;4.03;;;3.23;;
12812;SDS011;6471;50.932;6.934;2023-07-08T07:38:21;5.23;;;3.37;;
12812;SDS011;6471;50.932;6.934;2023-07-08T07:40:55;4.97;;;3.20;;
12812;SDS011;6471;50.932;6.934;2023-07-08T07:43:33;4.23;;;3.40;;
12812;SDS011;6471;50.932;6.934;2023-07-08T07:45:59;4.20;;;3.37;;
12812;SDS011;6471;50.932;6.934;2023-07-08T07:51:41;4.47;;;3.40;;
12812;SDS011;6471;50.932;6.934;2023-07-08T07:54:10;6.43;;;3.73;;
12812;SDS011;6471;50.932;6.934;2023-07-08T07:56:39;5.17;;;3.97;;
12812;SDS011;6471;50.932;6.934;2023-07-08T08:02:19;5.07;;;3.70;;
12812;SDS011;6471;50.932;6.934;2023-07-08T08:04:46;4.47;;;3.63;;
12812;SDS011;6471;50.932;6.934;2023-07-08T08:07:14;5.00;;;4.03;;
12812;SDS011;6471;50.932;6.934;2023-07-08T08:09:40;5.53;;;4.18;;
12812;SDS011;6471;50.932;6.934;2023-07-08T08:12:07;4.13;;;3.60;;
12812;SDS011;6471;50.932;6.934;2023-07-08T08:14:34;4.75;;;3.58;;
12812;SDS011;6471;50.932;6.934;2023-07-08T08:17:05;4.53;;;3.97;;
12812;SDS011;6471;50.932;6.934;2023-07-08T08:19:40;4.50;;;3.58;;
12812;SDS011;6471;50.932;6.934;2023-07-08T08:22:07;5.72;;;3.78;;
12812;SDS011;6471;50.932;6.934;2023-07-08T08:24:40;5.15;;;3.50;;
12812;SDS011;6471;50.932;6.934;2023-07-08T08:27:06;4.35;;;3.80;;
12812;SDS011;6471;50.932;6.934;2023-07-08T08:29:46;3.90;;;3.50;;
12812;SDS011;6471;50.932;6.934;2023-07-08T08:35:27;4.10;;;3.40;;
12812;SDS011;6471;50.932;6.934;2023-07-08T08:38:03;4.28;;;3.50;;
12812;SDS011;6471;50.932;6.934;2023-07-08T08:40:38;6.32;;;3.45;;
12812;SDS011;6471;50.932;6.934;2023-07-08T08:55:36;6.45;;;3.85;;
12812;SDS011;6471;50.932;6.934;2023-07-08T08:58:27;5.03;;;3.95;;
12812;SDS011;6471;50.932;6.934;2023-07-08T09:01:01;5.50;;;3.70;;
12812;SDS011;6471;50.932;6.934;2023-07-08T09:06:16;4.40;;;4.00;;
12812;SDS011;6471;50.932;6.934;2023-07-08T09:08:50;4.78;;;4.28;;
12812;SDS011;6471;50.932;6.934;2023-07-08T09:20:27;5.85;;;4.60;;
12812;SDS011;6471;50.932;6.934;2023-07-08T09:28:14;8.30;;;3.83;;
12812;SDS011;6471;50.932;6.934;2023-07-08T09:30:41;5.35;;;4.20;;
12812;SDS011;6471;50.932;6.934;2023-07-08T09:33:14;6.20;;;3.95;;
12812;SDS011;6471;50.932;6.934;2023-07-08T09:35:41;4.55;;;3.55;;
12812;SDS011;6471;50.932;6.934;2023-07-08T09:38:09;5.30;;;3.67;;
12812;SDS011;6471;50.932;6.934;2023-07-08T09:40:38;4.80;;;3.88;;
12812;SDS011;6471;50.932;6.934;2023-07-08T09:43:34;4.25;;;3.80;;
12812;SDS011;6471;50.932;6.934;2023-07-08T09:46:03;5.22;;;4.00;;
12812;SDS011;6471;50.932;6.934;2023-07-08T09:48:31;6.45;;;3.88;;
12812;SDS011;6471;50.932;6.934;2023-07-08T09:50:58;5.07;;;3.83;;
12812;SDS011;6471;50.932;6.934;2023-07-08T09:53:30;5.50;;;3.80;;
12812;SDS011;6471;50.932;6.934;2023-07-08T09:56:03;7.03;;;4.28;;
12812;SDS011;6471;50.932;6.934;2023-07-08T09:58:33;7.97;;;4.20;;
12812;SDS011;6471;50.932;6.934;2023-07-08T10:01:21;5.88;;;4.07;;
12812;SDS011;6471;50.932;6.934;2023-07-08T10:03:49;4.75;;;3.60;;
12812;SDS011;6471;50.932;6.934;2023-07-08T10:06:21;7.30;;;3.88;;
12812;SDS011;6471;50.932;6.934;2023-07-08T10:08:49;4.90;;;3.80;;
12812;SDS011;6471;50.932;6.934;2023-07-08T10:13:43;5.88;;;4.10;;
12812;SDS011;6471;50.932;6.934;2023-07-08T10:18:51;6.43;;;3.78;;
12812;SDS011;6471;50.932;6.934;2023-07-08T10:29:38;5.72;;;3.63;;
12812;SDS011;6471;50.932;6.934;2023-07-08T10:35:12;5.32;;;3.67;;
12812;SDS011;6471;50.932;6.934;2023-07-08T10:45:23;4.82;;;3.80;;
12812;SDS011;6471;50.932;6.934;2023-07-08T10:51:00;5.20;;;3.60;;
12812;SDS011;6471;50.932;6.934;2023-07-08T10:55:59;5.00;;;3.88;;
12812;SDS011;6471;50.932;6.934;2023-07-08T10:58:50;5.32;;;3.72;;
12812;SDS011;6471;50.932;6.934;2023-07-08T11:01:23;6.22;;;3.78;;
12812;SDS011;6471;50.932;6.934;2023-07-08T11:04:06;7.07;;;3.85;;
12812;SDS011;6471;50.932;6.934;2023-07-08T11:06:46;5.35;;;4.03;;
12812;SDS011;6471;50.932;6.934;2023-07-08T11:09:17;5.65;;;3.72;;
12812;SDS011;6471;50.932;6.934;2023-07-08T11:14:15;6.25;;;4.13;;
12812;SDS011;6471;50.932;6.934;2023-07-08T11:16:45;5.78;;;4.43;;
12812;SDS011;6471;50.932;6.934;2023-07-08T11:21:46;7.05;;;3.65;;
12812;SDS011;6471;50.932;6.934;2023-07-08T11:26:50;6.47;;;3.75;;
12812;SDS011;6471;50.932;6.934;2023-07-08T11:29:22;5.82;;;3.85;;
12812;SDS011;6471;50.932;6.934;2023-07-08T11:31:49;7.00;;;4.38;;
12812;SDS011;6471;50.932;6.934;2023-07-08T11:34:17;6.95;;;4.43;;
12812;SDS011;6471;50.932;6.934;2023-07-08T11:36:44;4.90;;;3.47;;
12812;SDS011;6471;50.932;6.934;2023-07-08T11:42:03;6.68;;;3.95;;
12812;SDS011;6471;50.932;6.934;2023-07-08T11:44:30;5.43;;;3.70;;
12812;SDS011;6471;50.932;6.934;2023-07-08T11:46:58;6.20;;;3.72;;
12812;SDS011;6471;50.932;6.934;2023-07-08T11:49:25;4.65;;;3.80;;
12812;SDS011;6471;50.932;6.934;2023-07-08T11:51:55;7.85;;;3.95;;
12812;SDS011;6471;50.932;6.934;2023-07-08T11:54:30;5.43;;;3.53;;
12812;SDS011;6471;50.932;6.934;2023-07-08T11:59:23;4.82;;;3.92;;
12812;SDS011;6471;50.932;6.934;2023-07-08T12:01:53;5.30;;;3.95;;
12812;SDS011;6471;50.932;6.934;2023-07-08T12:04:27;6.05;;;3.78;;
12812;SDS011;6471;50.932;6.934;2023-07-08T12:07:02;4.75;;;3.58;;
12812;SDS011;6471;50.932;6.934;2023-07-08T12:09:29;4.90;;;3.83;;
12812;SDS011;6471;50.932;6.934;2023-07-08T12:12:02;6.47;;;3.83;;
12812;SDS011;6471;50.932;6.934;2023-07-08T12:14:32;5.70;;;4.13;;
12812;SDS011;6471;50.932;6.934;2023-07-08T12:16:59;4.88;;;3.60;;
12812;SDS011;6471;50.932;6.934;2023-07-08T12:19:27;5.20;;;3.38;;
12812;SDS011;6471;50.932;6.934;2023-07-08T12:21:57;4.63;;;3.22;;
12812;SDS011;6471;50.932;6.934;2023-07-08T12:24:23;7.05;;;3.22;;
12812;SDS011;6471;50.932;6.934;2023-07-08T12:26:52;6.10;;;4.03;;
12812;SDS011;6471;50.932;6.934;2023-07-08T12:29:19;5.50;;;3.78;;
12812;SDS011;6471;50.932;6.934;2023-07-08T12:31:48;5.47;;;3.70;;
12812;SDS011;6471;50.932;6.934;2023-07-08T12:34:15;4.43;;;3.55;;
12812;SDS011;6471;50.932;6.934;2023-07-08T12:36:42;5.22;;;3.88;;
12812;SDS011;6471;50.932;6.934;2023-07-08T12:39:10;5.47;;;3.80;;
12812;SDS011;6471;50.932;6.934;2023-07-08T12:41:37;5.97;;;3.53;;
12812;SDS011;6471;50.932;6.934;2023-07-08T12:44:04;5.07;;;3.60;;
12812;SDS011;6471;50.932;6.934;2023-07-08T12:46:33;4.78;;;3.75;;
12812;SDS011;6471;50.932;6.934;2023-07-08T12:48:59;7.45;;;3.70;;
12812;SDS011;6471;50.932;6.934;2023-07-08T12:51:27;5.00;;;3.70;;
12812;SDS011;6471;50.932;6.934;2023-07-08T12:53:54;5.10;;;3.55;;
12812;SDS011;6471;50.932;6.934;2023-07-08T12:56:22;5.00;;;3.70;;
12812;SDS011;6471;50.932;6.934;2023-07-08T12:58:50;4.93;;;3.78;;
12812;SDS011;6471;50.932;6.934;2023-07-08T13:01:20;6.40;;;3.80;;
12812;SDS011;6471;50.932;6.934;2023-07-08T13:03:48;4.90;;;3.58;;
12812;SDS011;6471;50.932;6.934;2023-07-08T13:06:15;6.20;;;3.75;;
12812;SDS011;6471;50.932;6.934;2023-07-08T13:08:42;6.10;;;3.63;;
12812;SDS011;6471;50.932;6.934;2023-07-08T13:11:08;6.43;;;3.85;;
12812;SDS011;6471;50.932;6.934;2023-07-08T13:13:35;6.15;;;3.78;;
12812;SDS011;6471;50.932;6.934;2023-07-08T13:16:02;5.78;;;3.55;;
12812;SDS011;6471;50.932;6.934;2023-07-08T13:18:33;5.68;;;3.55;;
12812;SDS011;6471;50.932;6.934;2023-07-08T13:21:00;4.28;;;3.15;;
12812;SDS011;6471;50.932;6.934;2023-07-08T13:23:27;4.75;;;3.53;;
12812;SDS011;6471;50.932;6.934;2023-07-08T13:25:53;5.40;;;3.55;;
12812;SDS011;6471;50.932;6.934;2023-07-08T13:30:50;6.00;;;3.67;;
12812;SDS011;6471;50.932;6.934;2023-07-08T13:33:17;5.65;;;3.70;;
12812;SDS011;6471;50.932;6.934;2023-07-08T13:35:43;5.63;;;4.80;;
12812;SDS011;6471;50.932;6.934;2023-07-08T13:38:23;4.88;;;4.30;;
12812;SDS011;6471;50.932;6.934;2023-07-08T13:40:54;5.20;;;3.80;;
12812;SDS011;6471;50.932;6.934;2023-07-08T13:43:32;5.35;;;4.03;;
12812;SDS011;6471;50.932;6.934;2023-07-08T13:49:12;4.97;;;3.80;;
12812;SDS011;6471;50.932;6.934;2023-07-08T13:52:07;6.45;;;3.90;;
12812;SDS011;6471;50.932;6.934;2023-07-08T13:54:38;5.43;;;3.85;;
12812;SDS011;6471;50.932;6.934;2023-07-08T13:57:22;4.82;;;3.58;;
12812;SDS011;6471;50.932;6.934;2023-07-08T14:02:44;4.05;;;3.60;;
12812;SDS011;6471;50.932;6.934;2023-07-08T14:08:12;5.97;;;3.72;;
12812;SDS011;6471;50.932;6.934;2023-07-08T14:10:38;5.05;;;3.90;;
12812;SDS011;6471;50.932;6.934;2023-07-08T14:27:27;6.90;;;6.10;;
12812;SDS011;6471;50.932;6.934;2023-07-08T14:30:39;7.40;;;5.22;;
12812;SDS011;6471;50.932;6.934;2023-07-08T14:32:47;6.53;;;4.80;;
12812;SDS011;6471;50.932;6.934;2023-07-08T14:35:46;6.25;;;4.00;;
12812;SDS011;6471;50.932;6.934;2023-07-08T14:38:12;6.97;;;4.70;;
12812;SDS011;6471;50.932;6.934;2023-07-08T14:40:39;5.22;;;4.25;;
12812;SDS011;6471;50.932;6.934;2023-07-08T14:43:07;5.75;;;4.35;;
12812;SDS011;6471;50.932;6.934;2023-07-08T14:45:40;5.85;;;4.05;;
12812;SDS011;6471;50.932;6.934;2023-07-08T14:48:32;5.28;;;3.97;;
12812;SDS011;6471;50.932;6.934;2023-07-08T14:51:44;4.15;;;3.60;;
12812;SDS011;6471;50.932;6.934;2023-07-08T14:54:12;4.20;;;3.30;;
12812;SDS011;6471;50.932;6.934;2023-07-08T14:56:39;5.22;;;3.92;;
12812;SDS011;6471;50.932;6.934;2023-07-08T15:25:14;3.90;;;3.42;;
12812;SDS011;6471;50.932;6.934;2023-07-08T15:27:43;6.50;;;4.05;;
12812;SDS011;6471;50.932;6.934;2023-07-08T15:30:26;6.72;;;4.20;;
12812;SDS011;6471;50.932;6.934;2023-07-08T15:32:56;6.25;;;4.40;;
12812;SDS011;6471;50.932;6.934;2023-07-08T15:35:26;9.95;;;5.03;;
12812;SDS011;6471;50.932;6.934;2023-07-08T15:37:59;6.93;;;4.72;;
12812;SDS011;6471;50.932;6.934;2023-07-08T15:40:29;7.43;;;5.18;;
12812;SDS011;6471;50.932;6.934;2023-07-08T15:42:56;9.15;;;7.28;;
12812;SDS011;6471;50.932;6.934;2023-07-08T15:45:35;12.88;;;8.55;;
12812;SDS011;6471;50.932;6.934;2023-07-08T15:48:20;8.98;;;7.47;;
12812;SDS011;6471;50.932;6.934;2023-07-08T15:50:47;9.18;;;7.75;;
12812;SDS011;6471;50.932;6.934;2023-07-08T15:56:23;9.00;;;6.43;;
12812;SDS011;6471;50.932;6.934;2023-07-08T15:59:38;7.95;;;5.80;;
12812;SDS011;6471;50.932;6.934;2023-07-08T16:05:09;6.22;;;5.63;;
12812;SDS011;6471;50.932;6.934;2023-07-08T16:34:49;4.60;;;3.45;;
12812;SDS011;6471;50.932;6.934;2023-07-08T16:37:15;4.57;;;3.53;;
12812;SDS011;6471;50.932;6.934;2023-07-08T16:39:42;4.00;;;3.25;;
12812;SDS011;6471;50.932;6.934;2023-07-08T16:42:09;4.22;;;3.38;;
12812;SDS011;6471;50.932;6.934;2023-07-08T16:44:38;4.68;;;3.67;;
12812;SDS011;6471;50.932;6.934;2023-07-08T16:47:07;5.22;;;4.03;;
12812;SDS011;6471;50.932;6.934;2023-07-08T16:49:33;4.90;;;3.72;;
12812;SDS011;6471;50.932;6.934;2023-07-08T16:52:09;6.88;;;4.45;;
12812;SDS011;6471;50.932;6.934;2023-07-08T16:54:46;6.18;;;4.20;;
12812;SDS011;6471;50.932;6.934;2023-07-08T16:57:14;7.05;;;4.50;;
12812;SDS011;6471;50.932;6.934;2023-07-08T16:59:41;7.03;;;4.22;;
12812;SDS011;6471;50.932;6.934;2023-07-08T17:02:14;6.72;;;5.07;;
12812;SDS011;6471;50.932;6.934;2023-07-08T17:04:41;5.88;;;5.10;;
12812;SDS011;6471;50.932;6.934;2023-07-08T17:07:10;9.10;;;5.10;;
12812;SDS011;6471;50.932;6.934;2023-07-08T17:09:37;5.78;;;4.82;;
12812;SDS011;6471;50.932;6.934;2023-07-08T17:12:04;6.68;;;4.95;;
12812;SDS011;6471;50.932;6.934;2023-07-08T17:14:31;4.93;;;4.18;;
12812;SDS011;6471;50.932;6.934;2023-07-08T17:16:57;6.28;;;5.07;;
12812;SDS011;6471;50.932;6.934;2023-07-08T17:19:23;6.80;;;4.53;;
12812;SDS011;6471;50.932;6.934;2023-07-08T17:21:49;7.35;;;4.72;;
12812;SDS011;6471;50.932;6.934;2023-07-08T17:24:15;10.55;;;5.18;;
12812;SDS011;6471;50.932;6.934;2023-07-08T17:26:44;9.95;;;5.38;;
12812;SDS011;6471;50.932;6.934;2023-07-08T17:29:12;17.73;;;5.85;;
12812;SDS011;6471;50.932;6.934;2023-07-08T17:31:40;10.77;;;5.50;;
12812;SDS011;6471;50.932;6.934;2023-07-08T17:34:07;10.93;;;5.18;;
12812;SDS011;6471;50.932;6.934;2023-07-08T17:36:37;6.85;;;4.75;;
12812;SDS011;6471;50.932;6.934;2023-07-08T17:39:03;11.10;;;6.32;;
12812;SDS011;6471;50.932;6.934;2023-07-08T17:41:29;8.40;;;5.28;;
12812;SDS011;6471;50.932;6.934;2023-07-08T17:43:55;6.38;;;4.60;;
12812;SDS011;6471;50.932;6.934;2023-07-08T17:46:23;5.88;;;4.65;;
12812;SDS011;6471;50.932;6.934;2023-07-08T17:48:49;5.68;;;3.85;;
12812;SDS011;6471;50.932;6.934;2023-07-08T17:51:17;4.22;;;3.55;;
12812;SDS011;6471;50.932;6.934;2023-07-08T17:53:43;5.32;;;4.25;;
12812;SDS011;6471;50.932;6.934;2023-07-08T17:56:14;4.07;;;3.60;;
12812;SDS011;6471;50.932;6.934;2023-07-08T17:58:42;5.00;;;4.22;;
12812;SDS011;6471;50.932;6.934;2023-07-08T18:01:08;4.68;;;3.75;;
12812;SDS011;6471;50.932;6.934;2023-07-08T18:03:34;5.15;;;3.90;;
12812;SDS011;6471;50.932;6.934;2023-07-08T18:06:00;6.20;;;4.00;;
12812;SDS011;6471;50.932;6.934;2023-07-08T18:08:29;5.45;;;3.90;;
12812;SDS011;6471;50.932;6.934;2023-07-08T18:11:01;4.72;;;3.75;;
12812;SDS011;6471;50.932;6.934;2023-07-08T18:13:28;4.70;;;3.40;;
12812;SDS011;6471;50.932;6.934;2023-07-08T18:16:00;5.55;;;3.25;;
12812;SDS011;6471;50.932;6.934;2023-07-08T18:18:32;3.80;;;3.20;;
12812;SDS011;6471;50.932;6.934;2023-07-08T18:20:58;4.75;;;3.08;;
12812;SDS011;6471;50.932;6.934;2023-07-08T18:23:28;6.70;;;3.83;;
12812;SDS011;6471;50.932;6.934;2023-07-08T18:25:56;4.93;;;3.75;;
12812;SDS011;6471;50.932;6.934;2023-07-08T18:28:22;4.85;;;3.28;;
12812;SDS011;6471;50.932;6.934;2023-07-08T18:30:48;4.78;;;3.15;;
12812;SDS011;6471;50.932;6.934;2023-07-08T18:33:17;4.20;;;3.10;;
12812;SDS011;6471;50.932;6.934;2023-07-08T18:35:44;4.38;;;3.38;;
12812;SDS011;6471;50.932;6.934;2023-07-08T18:38:10;4.80;;;3.40;;
12812;SDS011;6471;50.932;6.934;2023-07-08T18:40:38;4.15;;;3.40;;
12812;SDS011;6471;50.932;6.934;2023-07-08T18:43:10;4.70;;;3.80;;
12812;SDS011;6471;50.932;6.934;2023-07-08T18:45:39;6.15;;;4.35;;
12812;SDS011;6471;50.932;6.934;2023-07-08T18:48:05;5.63;;;3.88;;
12812;SDS011;6471;50.932;6.934;2023-07-08T18:50:31;4.40;;;3.80;;
12812;SDS011;6471;50.932;6.934;2023-07-08T18:52:59;5.47;;;4.25;;
12812;SDS011;6471;50.932;6.934;2023-07-08T18:55:25;5.28;;;4.10;;
12812;SDS011;6471;50.932;6.934;2023-07-08T18:57:54;6.45;;;4.55;;
12812;SDS011;6471;50.932;6.934;2023-07-08T19:00:20;6.15;;;4.10;;
12812;SDS011;6471;50.932;6.934;2023-07-08T19:02:54;3.97;;;3.50;;
12812;SDS011;6471;50.932;6.934;2023-07-08T19:05:20;4.97;;;3.83;;
12812;SDS011;6471;50.932;6.934;2023-07-08T19:07:48;6.03;;;4.43;;
12812;SDS011;6471;50.932;6.934;2023-07-08T19:10:15;4.63;;;3.70;;
12812;SDS011;6471;50.932;6.934;2023-07-08T19:12:42;5.03;;;3.47;;
12812;SDS011;6471;50.932;6.934;2023-07-08T19:15:16;4.03;;;3.35;;
12812;SDS011;6471;50.932;6.934;2023-07-08T19:17:43;4.20;;;3.42;;
12812;SDS011;6471;50.932;6.934;2023-07-08T19:20:09;4.22;;;3.45;;
12812;SDS011;6471;50.932;6.934;2023-07-08T19:22:36;4.57;;;3.42;;
12812;SDS011;6471;50.932;6.934;2023-07-08T19:25:03;4.28;;;3.08;;
12812;SDS011;6471;50.932;6.934;2023-07-08T19:27:32;3.17;;;2.83;;
12812;SDS011;6471;50.932;6.934;2023-07-08T19:29:58;3.72;;;2.58;;
12812;SDS011;6471;50.932;6.934;2023-07-08T19:32:24;3.15;;;2.70;;
12812;SDS011;6471;50.932;6.934;2023-07-08T19:34:55;3.42;;;2.90;;
12812;SDS011;6471;50.932;6.934;2023-07-08T19:37:25;2.90;;;2.60;;
12812;SDS011;6471;50.932;6.934;2023-07-08T19:39:51;4.32;;;2.80;;
12812;SDS011;6471;50.932;6.934;2023-07-08T19:42:19;4.47;;;3.38;;
12812;SDS011;6471;50.932;6.934;2023-07-08T19:44:47;4.82;;;4.00;;
12812;SDS011;6471;50.932;6.934;2023-07-08T19:47:13;4.30;;;3.65;;
12812;SDS011;6471;50.932;6.934;2023-07-08T19:49:40;4.50;;;3.53;;
12812;SDS011;6471;50.932;6.934;2023-07-08T19:52:07;4.13;;;3.17;;
12812;SDS011;6471;50.932;6.934;2023-07-08T19:54:33;4.00;;;3.15;;
12812;SDS011;6471;50.932;6.934;2023-07-08T19:57:00;5.47;;;3.95;;
12812;SDS011;6471;50.932;6.934;2023-07-08T19:59:26;5.30;;;3.80;;
12812;SDS011;6471;50.932;6.934;2023-07-08T20:01:54;4.63;;;3.80;;
12812;SDS011;6471;50.932;6.934;2023-07-08T20:04:22;4.80;;;3.80;;
12812;SDS011;6471;50.932;6.934;2023-07-08T20:06:48;5.07;;;3.47;;
12812;SDS011;6471;50.932;6.934;2023-07-08T20:09:14;4.68;;;3.53;;
12812;SDS011;6471;50.932;6.934;2023-07-08T20:11:40;3.92;;;3.45;;
12812;SDS011;6471;50.932;6.934;2023-07-08T20:14:06;3.70;;;3.20;;
12812;SDS011;6471;50.932;6.934;2023-07-08T20:16:32;5.03;;;3.30;;
12812;SDS011;6471;50.932;6.934;2023-07-08T20:18:59;4.25;;;3.50;;
12812;SDS011;6471;50.932;6.934;2023-07-08T20:21:25;3.53;;;3.20;;
12812;SDS011;6471;50.932;6.934;2023-07-08T20:23:51;3.83;;;3.17;;
12812;SDS011;6471;50.932;6.934;2023-07-08T20:28:46;4.32;;;3.10;;
12812;SDS011;6471;50.932;6.934;2023-07-08T20:31:12;3.90;;;3.28;;
12812;SDS011;6471;50.932;6.934;2023-07-08T20:33:39;3.75;;;3.20;;
12812;SDS011;6471;50.932;6.934;2023-07-08T20:36:05;3.90;;;3.30;;
12812;SDS011;6471;50.932;6.934;2023-07-08T20:38:34;3.70;;;3.15;;
12812;SDS011;6471;50.932;6.934;2023-07-08T20:41:00;4.57;;;3.80;;
12812;SDS011;6471;50.932;6.934;2023-07-08T20:43:29;5.88;;;4.22;;
12812;SDS011;6471;50.932;6.934;2023-07-08T20:45:58;4.22;;;3.83;;
12812;SDS011;6471;50.932;6.934;2023-07-08T20:48:29;5.35;;;4.20;;
12812;SDS011;6471;50.932;6.934;2023-07-08T20:50:56;6.18;;;3.90;;
12812;SDS011;6471;50.932;6.934;2023-07-08T20:53:23;6.47;;;4.10;;
12812;SDS011;6471;50.932;6.934;2023-07-08T20:55:49;5.28;;;4.15;;
12812;SDS011;6471;50.932;6.934;2023-07-08T20:58:18;4.97;;;4.00;;
12812;SDS011;6471;50.932;6.934;2023-07-08T21:00:45;4.90;;;3.78;;
12812;SDS011;6471;50.932;6.934;2023-07-08T21:03:14;5.40;;;3.80;;
12812;SDS011;6471;50.932;6.934;2023-07-08T21:05:42;4.25;;;3.80;;
12812;SDS011;6471;50.932;6.934;2023-07-08T21:08:29;5.03;;;4.53;;
12812;SDS011;6471;50.932;6.934;2023-07-08T21:10:58;8.23;;;6.10;;
12812;SDS011;6471;50.932;6.934;2023-07-08T21:13:24;7.67;;;5.77;;
12812;SDS011;6471;50.932;6.934;2023-07-08T21:15:51;6.72;;;5.38;;
12812;SDS011;6471;50.932;6.934;2023-07-08T21:18:26;7.83;;;5.30;;
12812;SDS011;6471;50.932;6.934;2023-07-08T21:20:53;6.25;;;5.25;;
12812;SDS011;6471;50.932;6.934;2023-07-08T21:23:19;7.55;;;4.95;;
12812;SDS011;6471;50.932;6.934;2023-07-08T21:25:46;6.20;;;5.57;;
12812;SDS011;6471;50.932;6.934;2023-07-08T21:28:34;6.47;;;4.83;;
12812;SDS011;6471;50.932;6.934;2023-07-08T21:31:02;6.07;;;5.13;;
12812;SDS011;6471;50.932;6.934;2023-07-08T21:33:29;6.00;;;4.80;;
12812;SDS011;6471;50.932;6.934;2023-07-08T21:35:56;5.80;;;5.20;;
12812;SDS011;6471;50.932;6.934;2023-07-08T21:38:22;6.53;;;5.60;;
12812;SDS011;6471;50.932;6.934;2023-07-08T21:40:49;6.17;;;4.77;;
12812;SDS011;6471;50.932;6.934;2023-07-08T21:43:17;5.13;;;4.63;;
12812;SDS011;6471;50.932;6.934;2023-07-08T21:45:44;6.90;;;5.20;;
12812;SDS011;6471;50.932;6.934;2023-07-08T21:48:11;6.57;;;5.40;;
12812;SDS011;6471;50.932;6.934;2023-07-08T21:50:41;5.80;;;5.17;;
12812;SDS011;6471;50.932;6.934;2023-07-08T21:53:27;7.27;;;5.90;;
12812;SDS011;6471;50.932;6.934;2023-07-08T21:55:55;7.17;;;5.37;;
12812;SDS011;6471;50.932;6.934;2023-07-08T21:58:22;6.23;;;5.20;;
12812;SDS011;6471;50.932;6.934;2023-07-08T22:00:48;7.03;;;6.07;;
12812;SDS011;6471;50.932;6.934;2023-07-08T22:03:19;6.80;;;6.00;;
12812;SDS011;6471;50.932;6.934;2023-07-08T22:05:45;8.70;;;6.40;;
12812;SDS011;6471;50.932;6.934;2023-07-08T22:08:12;8.03;;;7.00;;
12812;SDS011;6471;50.932;6.934;2023-07-08T22:10:39;9.83;;;7.10;;
12812;SDS011;6471;50.932;6.934;2023-07-08T22:13:08;8.33;;;6.90;;
12812;SDS011;6471;50.932;6.934;2023-07-08T22:15:35;7.37;;;5.70;;
12812;SDS011;6471;50.932;6.934;2023-07-08T22:18:01;8.60;;;6.37;;
12812;SDS011;6471;50.932;6.934;2023-07-08T22:20:28;6.80;;;5.60;;
12812;SDS011;6471;50.932;6.934;2023-07-08T22:22:54;6.57;;;5.10;;
12812;SDS011;6471;50.932;6.934;2023-07-08T22:25:25;6.33;;;4.93;;
12812;SDS011;6471;50.932;6.934;2023-07-08T22:27:51;6.73;;;4.87;;
12812;SDS011;6471;50.932;6.934;2023-07-08T22:30:18;6.10;;;5.30;;
12812;SDS011;6471;50.932;6.934;2023-07-08T22:32:44;5.80;;;4.70;;
12812;SDS011;6471;50.932;6.934;2023-07-08T22:37:39;6.00;;;4.80;;
12812;SDS011;6471;50.932;6.934;2023-07-08T22:40:05;6.03;;;5.20;;
12812;SDS011;6471;50.932;6.934;2023-07-08T22:42:32;5.50;;;4.73;;
12812;SDS011;6471;50.932;6.934;2023-07-08T22:45:00;7.17;;;5.07;;
12812;SDS011;6471;50.932;6.934;2023-07-08T22:47:29;6.60;;;5.03;;
12812;SDS011;6471;50.932;6.934;2023-07-08T22:49:55;5.77;;;4.77;;
12812;SDS011;6471;50.932;6.934;2023-07-08T22:52:27;6.53;;;5.07;;
12812;SDS011;6471;50.932;6.934;2023-07-08T22:54:54;5.73;;;4.60;;
12812;SDS011;6471;50.932;6.934;2023-07-08T23:00:24;6.43;;;4.77;;
12812;SDS011;6471;50.932;6.934;2023-07-08T23:02:51;6.47;;;5.00;;
12812;SDS011;6471;50.932;6.934;2023-07-08T23:05:26;6.43;;;5.10;;
12812;SDS011;6471;50.932;6.934;2023-07-08T23:11:26;6.63;;;5.10;;
12812;SDS011;6471;50.932;6.934;2023-07-08T23:13:57;8.17;;;6.60;;
12812;SDS011;6471;50.932;6.934;2023-07-08T23:16:41;8.10;;;6.30;;
12812;SDS011;6471;50.932;6.934;2023-07-08T23:22:40;6.53;;;5.47;;
12812;SDS011;6471;50.932;6.934;2023-07-08T23:32:07;6.80;;;5.10;;
12812;SDS011;6471;50.932;6.934;2023-07-08T23:35:02;6.87;;;5.43;;
12812;SDS011;6471;50.932;6.934;2023-07-08T23:37:53;6.50;;;5.17;;
12812;SDS011;6471;50.932;6.934;2023-07-08T23:50:46;5.40;;;4.27;;
12812;SDS011;6471;50.932;6.934;2023-07-08T23:53:21;6.77;;;5.03;;
12812;SDS011;6471;50.932;6.934;2023-07-08T23:58:41;5.37;;;4.70;;
